sensor_id;sensor_type;location;lat;lon;timestamp;P1;durP1;ratioP1;P2;durP2;ratioP2
13475;SDS011;6810;63.824;20.288;2023-05-10T00:01:21;5.40;;;2.87;;
13475;SDS011;6810;63.824;20.288;2023-05-10T00:03:48;4.27;;;2.93;;
13475;SDS011;6810;63.824;20.288;2023-05-10T00:06:16;3.93;;;2.77;;
13475;SDS011;6810;63.824;20.288;2023-05-10T00:08:43;3.50;;;2.70;;
13475;SDS011;6810;63.824;20.288;2023-05-10T00:11:10;6.60;;;3.17;;
13475;SDS011;6810;63.824;20.288;2023-05-10T00:13:37;4.53;;;3.10;;
13475;SDS011;6810;63.824;20.288;2023-05-10T00:16:05;7.47;;;3.47;;
13475;SDS011;6810;63.824;20.288;2023-05-10T00:18:32;4.30;;;3.10;;
13475;SDS011;6810;63.824;20.288;2023-05-10T00:20:59;5.67;;;3.10;;
13475;SDS011;6810;63.824;20.288;2023-05-10T00:23:26;7.03;;;3.27;;
13475;SDS011;6810;63.824;20.288;2023-05-10T00:25:53;5.37;;;3.03;;
13475;SDS011;6810;63.824;20.288;2023-05-10T00:28:21;6.77;;;3.13;;
13475;SDS011;6810;63.824;20.288;2023-05-10T00:30:48;5.33;;;3.00;;
13475;SDS011;6810;63.824;20.288;2023-05-10T00:33:15;5.77;;;3.00;;
13475;SDS011;6810;63.824;20.288;2023-05-10T00:35:42;5.17;;;2.93;;
13475;SDS011;6810;63.824;20.288;2023-05-10T00:38:10;6.17;;;3.20;;
13475;SDS011;6810;63.824;20.288;2023-05-10T00:40:37;5.27;;;3.07;;
13475;SDS011;6810;63.824;20.288;2023-05-10T00:43:09;5.37;;;2.90;;
13475;SDS011;6810;63.824;20.288;2023-05-10T00:45:37;7.60;;;3.20;;
13475;SDS011;6810;63.824;20.288;2023-05-10T00:48:07;4.47;;;3.17;;
13475;SDS011;6810;63.824;20.288;2023-05-10T00:50:54;5.20;;;3.00;;
13475;SDS011;6810;63.824;20.288;2023-05-10T00:53:41;4.87;;;2.80;;
13475;SDS011;6810;63.824;20.288;2023-05-10T00:56:30;6.73;;;3.33;;
13475;SDS011;6810;63.824;20.288;2023-05-10T00:59:19;4.23;;;3.13;;
13475;SDS011;6810;63.824;20.288;2023-05-10T01:02:07;6.07;;;3.23;;
13475;SDS011;6810;63.824;20.288;2023-05-10T01:04:56;16.80;;;3.53;;
13475;SDS011;6810;63.824;20.288;2023-05-10T01:07:43;4.03;;;2.80;;
13475;SDS011;6810;63.824;20.288;2023-05-10T01:10:30;6.40;;;3.07;;
13475;SDS011;6810;63.824;20.288;2023-05-10T01:13:18;5.67;;;3.27;;
13475;SDS011;6810;63.824;20.288;2023-05-10T01:16:34;6.23;;;3.10;;
13475;SDS011;6810;63.824;20.288;2023-05-10T01:19:25;3.77;;;3.10;;
13475;SDS011;6810;63.824;20.288;2023-05-10T01:25:37;6.70;;;3.30;;
13475;SDS011;6810;63.824;20.288;2023-05-10T01:35:07;7.20;;;3.53;;
13475;SDS011;6810;63.824;20.288;2023-05-10T01:38:18;4.40;;;3.40;;
13475;SDS011;6810;63.824;20.288;2023-05-10T01:41:17;4.37;;;3.47;;
13475;SDS011;6810;63.824;20.288;2023-05-10T01:47:58;5.03;;;3.20;;
13475;SDS011;6810;63.824;20.288;2023-05-10T01:50:22;6.63;;;3.13;;
13475;SDS011;6810;63.824;20.288;2023-05-10T01:53:13;6.40;;;3.67;;
13475;SDS011;6810;63.824;20.288;2023-05-10T01:56:05;8.37;;;3.63;;
13475;SDS011;6810;63.824;20.288;2023-05-10T01:58:55;7.57;;;3.30;;
13475;SDS011;6810;63.824;20.288;2023-05-10T02:01:44;6.90;;;3.53;;
13475;SDS011;6810;63.824;20.288;2023-05-10T02:04:32;3.87;;;3.07;;
13475;SDS011;6810;63.824;20.288;2023-05-10T02:07:22;6.23;;;3.03;;
13475;SDS011;6810;63.824;20.288;2023-05-10T02:10:10;4.67;;;3.30;;
13475;SDS011;6810;63.824;20.288;2023-05-10T02:13:00;6.60;;;3.43;;
13475;SDS011;6810;63.824;20.288;2023-05-10T02:15:48;6.03;;;3.73;;
13475;SDS011;6810;63.824;20.288;2023-05-10T02:18:38;6.30;;;3.80;;
13475;SDS011;6810;63.824;20.288;2023-05-10T02:21:28;5.37;;;3.23;;
13475;SDS011;6810;63.824;20.288;2023-05-10T02:24:16;4.90;;;3.57;;
13475;SDS011;6810;63.824;20.288;2023-05-10T02:27:05;6.57;;;3.27;;
13475;SDS011;6810;63.824;20.288;2023-05-10T02:29:53;5.83;;;3.80;;
13475;SDS011;6810;63.824;20.288;2023-05-10T02:32:41;3.87;;;3.47;;
13475;SDS011;6810;63.824;20.288;2023-05-10T02:35:30;7.50;;;3.50;;
13475;SDS011;6810;63.824;20.288;2023-05-10T02:38:19;4.40;;;3.20;;
13475;SDS011;6810;63.824;20.288;2023-05-10T02:41:08;5.67;;;3.57;;
13475;SDS011;6810;63.824;20.288;2023-05-10T02:43:57;6.07;;;3.33;;
13475;SDS011;6810;63.824;20.288;2023-05-10T02:46:47;5.37;;;3.67;;
13475;SDS011;6810;63.824;20.288;2023-05-10T02:49:34;4.73;;;3.40;;
13475;SDS011;6810;63.824;20.288;2023-05-10T02:52:23;4.43;;;3.27;;
13475;SDS011;6810;63.824;20.288;2023-05-10T02:55:14;8.33;;;3.60;;
13475;SDS011;6810;63.824;20.288;2023-05-10T02:58:02;6.67;;;3.57;;
13475;SDS011;6810;63.824;20.288;2023-05-10T03:00:50;4.43;;;3.80;;
13475;SDS011;6810;63.824;20.288;2023-05-10T03:03:37;7.97;;;3.90;;
13475;SDS011;6810;63.824;20.288;2023-05-10T03:06:25;5.97;;;3.50;;
13475;SDS011;6810;63.824;20.288;2023-05-10T03:09:12;6.80;;;3.47;;
13475;SDS011;6810;63.824;20.288;2023-05-10T03:12:26;5.60;;;3.10;;
13475;SDS011;6810;63.824;20.288;2023-05-10T03:18:44;6.87;;;3.77;;
13475;SDS011;6810;63.824;20.288;2023-05-10T03:21:37;7.30;;;3.77;;
13475;SDS011;6810;63.824;20.288;2023-05-10T03:24:33;7.03;;;3.70;;
13475;SDS011;6810;63.824;20.288;2023-05-10T03:27:26;6.00;;;3.60;;
13475;SDS011;6810;63.824;20.288;2023-05-10T03:30:15;7.00;;;3.97;;
13475;SDS011;6810;63.824;20.288;2023-05-10T03:33:04;6.67;;;3.57;;
13475;SDS011;6810;63.824;20.288;2023-05-10T03:35:52;7.23;;;3.57;;
13475;SDS011;6810;63.824;20.288;2023-05-10T03:38:40;5.77;;;3.37;;
13475;SDS011;6810;63.824;20.288;2023-05-10T03:41:27;6.77;;;4.17;;
13475;SDS011;6810;63.824;20.288;2023-05-10T03:44:14;7.13;;;3.60;;
13475;SDS011;6810;63.824;20.288;2023-05-10T03:47:01;6.70;;;3.40;;
13475;SDS011;6810;63.824;20.288;2023-05-10T03:49:48;5.80;;;3.73;;
13475;SDS011;6810;63.824;20.288;2023-05-10T03:52:36;7.57;;;3.93;;
13475;SDS011;6810;63.824;20.288;2023-05-10T03:55:23;9.07;;;4.60;;
13475;SDS011;6810;63.824;20.288;2023-05-10T03:58:10;8.17;;;3.80;;
13475;SDS011;6810;63.824;20.288;2023-05-10T04:00:58;7.77;;;3.63;;
13475;SDS011;6810;63.824;20.288;2023-05-10T04:03:46;8.67;;;3.67;;
13475;SDS011;6810;63.824;20.288;2023-05-10T04:06:33;8.13;;;3.90;;
13475;SDS011;6810;63.824;20.288;2023-05-10T04:09:20;7.40;;;3.67;;
13475;SDS011;6810;63.824;20.288;2023-05-10T04:12:07;10.20;;;3.80;;
13475;SDS011;6810;63.824;20.288;2023-05-10T04:14:54;8.60;;;4.50;;
13475;SDS011;6810;63.824;20.288;2023-05-10T04:17:41;7.40;;;3.30;;
13475;SDS011;6810;63.824;20.288;2023-05-10T04:20:29;7.93;;;4.30;;
13475;SDS011;6810;63.824;20.288;2023-05-10T04:23:16;9.43;;;4.17;;
13475;SDS011;6810;63.824;20.288;2023-05-10T04:26:03;6.30;;;3.70;;
13475;SDS011;6810;63.824;20.288;2023-05-10T04:28:50;4.83;;;3.47;;
13475;SDS011;6810;63.824;20.288;2023-05-10T04:31:37;7.00;;;3.70;;
13475;SDS011;6810;63.824;20.288;2023-05-10T04:34:24;6.20;;;3.80;;
13475;SDS011;6810;63.824;20.288;2023-05-10T04:37:12;6.80;;;4.00;;
13475;SDS011;6810;63.824;20.288;2023-05-10T04:39:59;7.67;;;3.57;;
13475;SDS011;6810;63.824;20.288;2023-05-10T04:42:46;5.90;;;3.53;;
13475;SDS011;6810;63.824;20.288;2023-05-10T04:45:33;11.70;;;3.60;;
13475;SDS011;6810;63.824;20.288;2023-05-10T04:48:20;6.60;;;3.50;;
13475;SDS011;6810;63.824;20.288;2023-05-10T04:51:07;6.73;;;4.13;;
13475;SDS011;6810;63.824;20.288;2023-05-10T04:53:55;7.50;;;3.97;;
13475;SDS011;6810;63.824;20.288;2023-05-10T04:56:41;4.63;;;3.60;;
13475;SDS011;6810;63.824;20.288;2023-05-10T04:59:29;5.50;;;3.63;;
13475;SDS011;6810;63.824;20.288;2023-05-10T05:02:16;7.70;;;3.70;;
13475;SDS011;6810;63.824;20.288;2023-05-10T05:05:03;8.27;;;3.77;;
13475;SDS011;6810;63.824;20.288;2023-05-10T05:07:51;6.87;;;3.93;;
13475;SDS011;6810;63.824;20.288;2023-05-10T05:10:38;7.30;;;4.00;;
13475;SDS011;6810;63.824;20.288;2023-05-10T05:13:25;6.13;;;3.80;;
13475;SDS011;6810;63.824;20.288;2023-05-10T05:16:12;7.00;;;3.67;;
13475;SDS011;6810;63.824;20.288;2023-05-10T05:18:59;7.30;;;3.57;;
13475;SDS011;6810;63.824;20.288;2023-05-10T05:21:46;5.37;;;3.77;;
13475;SDS011;6810;63.824;20.288;2023-05-10T05:24:36;5.90;;;3.63;;
13475;SDS011;6810;63.824;20.288;2023-05-10T05:27:28;6.57;;;3.80;;
13475;SDS011;6810;63.824;20.288;2023-05-10T05:30:16;8.87;;;4.33;;
13475;SDS011;6810;63.824;20.288;2023-05-10T05:33:03;5.97;;;4.00;;
13475;SDS011;6810;63.824;20.288;2023-05-10T05:35:50;5.30;;;3.40;;
13475;SDS011;6810;63.824;20.288;2023-05-10T05:38:37;6.07;;;3.40;;
13475;SDS011;6810;63.824;20.288;2023-05-10T05:41:24;5.00;;;3.57;;
13475;SDS011;6810;63.824;20.288;2023-05-10T05:44:11;4.90;;;3.30;;
13475;SDS011;6810;63.824;20.288;2023-05-10T05:46:58;9.33;;;3.80;;
13475;SDS011;6810;63.824;20.288;2023-05-10T05:49:45;4.83;;;3.23;;
13475;SDS011;6810;63.824;20.288;2023-05-10T05:52:32;5.07;;;3.77;;
13475;SDS011;6810;63.824;20.288;2023-05-10T05:55:19;6.03;;;3.40;;
13475;SDS011;6810;63.824;20.288;2023-05-10T05:58:06;5.73;;;3.00;;
13475;SDS011;6810;63.824;20.288;2023-05-10T06:00:53;5.97;;;3.50;;
13475;SDS011;6810;63.824;20.288;2023-05-10T06:03:40;7.23;;;3.87;;
13475;SDS011;6810;63.824;20.288;2023-05-10T06:06:28;5.23;;;3.90;;
13475;SDS011;6810;63.824;20.288;2023-05-10T06:09:15;5.43;;;3.27;;
13475;SDS011;6810;63.824;20.288;2023-05-10T06:12:02;4.47;;;3.80;;
13475;SDS011;6810;63.824;20.288;2023-05-10T06:14:49;5.33;;;3.57;;
13475;SDS011;6810;63.824;20.288;2023-05-10T06:17:36;7.03;;;3.57;;
13475;SDS011;6810;63.824;20.288;2023-05-10T06:20:23;5.43;;;3.50;;
13475;SDS011;6810;63.824;20.288;2023-05-10T06:23:11;7.47;;;3.37;;
13475;SDS011;6810;63.824;20.288;2023-05-10T06:25:58;6.43;;;3.20;;
13475;SDS011;6810;63.824;20.288;2023-05-10T06:28:45;7.93;;;3.63;;
13475;SDS011;6810;63.824;20.288;2023-05-10T06:31:32;7.83;;;3.60;;
13475;SDS011;6810;63.824;20.288;2023-05-10T06:34:19;6.77;;;3.57;;
13475;SDS011;6810;63.824;20.288;2023-05-10T06:37:07;8.43;;;3.47;;
13475;SDS011;6810;63.824;20.288;2023-05-10T06:39:54;5.90;;;3.80;;
13475;SDS011;6810;63.824;20.288;2023-05-10T06:42:41;6.23;;;3.77;;
13475;SDS011;6810;63.824;20.288;2023-05-10T06:45:28;7.33;;;3.40;;
13475;SDS011;6810;63.824;20.288;2023-05-10T06:48:15;6.27;;;3.27;;
13475;SDS011;6810;63.824;20.288;2023-05-10T06:51:02;3.47;;;3.07;;
13475;SDS011;6810;63.824;20.288;2023-05-10T06:53:49;6.57;;;3.50;;
13475;SDS011;6810;63.824;20.288;2023-05-10T15:58:52;6.07;;;3.53;;
13475;SDS011;6810;63.824;20.288;2023-05-10T16:01:39;6.47;;;3.33;;
13475;SDS011;6810;63.824;20.288;2023-05-10T16:04:26;6.27;;;3.67;;
13475;SDS011;6810;63.824;20.288;2023-05-10T16:07:14;6.47;;;2.90;;
13475;SDS011;6810;63.824;20.288;2023-05-10T16:10:01;4.03;;;3.60;;
13475;SDS011;6810;63.824;20.288;2023-05-10T16:12:51;5.53;;;3.07;;
13475;SDS011;6810;63.824;20.288;2023-05-10T16:15:39;5.43;;;3.50;;
13475;SDS011;6810;63.824;20.288;2023-05-10T16:18:27;5.93;;;3.23;;
13475;SDS011;6810;63.824;20.288;2023-05-10T16:21:14;5.70;;;3.53;;
13475;SDS011;6810;63.824;20.288;2023-05-10T16:24:01;5.87;;;3.50;;
13475;SDS011;6810;63.824;20.288;2023-05-10T16:26:49;5.83;;;3.20;;
13475;SDS011;6810;63.824;20.288;2023-05-10T16:29:36;4.97;;;3.50;;
13475;SDS011;6810;63.824;20.288;2023-05-10T16:32:23;5.57;;;3.57;;
13475;SDS011;6810;63.824;20.288;2023-05-10T16:35:10;7.07;;;3.33;;
13475;SDS011;6810;63.824;20.288;2023-05-10T16:37:57;3.83;;;3.30;;
13475;SDS011;6810;63.824;20.288;2023-05-10T16:40:45;7.20;;;3.50;;
13475;SDS011;6810;63.824;20.288;2023-05-10T16:43:32;5.10;;;3.30;;
13475;SDS011;6810;63.824;20.288;2023-05-10T16:46:19;3.70;;;3.37;;
13475;SDS011;6810;63.824;20.288;2023-05-10T16:49:06;5.13;;;3.07;;
13475;SDS011;6810;63.824;20.288;2023-05-10T16:51:53;7.13;;;3.33;;
13475;SDS011;6810;63.824;20.288;2023-05-10T16:54:40;4.80;;;3.13;;
13475;SDS011;6810;63.824;20.288;2023-05-10T16:57:27;5.40;;;3.63;;
13475;SDS011;6810;63.824;20.288;2023-05-10T17:00:14;4.07;;;3.13;;
13475;SDS011;6810;63.824;20.288;2023-05-10T17:03:02;6.47;;;3.47;;
13475;SDS011;6810;63.824;20.288;2023-05-10T17:05:50;6.40;;;2.83;;
13475;SDS011;6810;63.824;20.288;2023-05-10T17:08:37;5.27;;;3.10;;
13475;SDS011;6810;63.824;20.288;2023-05-10T17:11:24;3.60;;;3.10;;
13475;SDS011;6810;63.824;20.288;2023-05-10T17:14:11;4.10;;;3.20;;
13475;SDS011;6810;63.824;20.288;2023-05-10T17:16:58;5.47;;;3.37;;
13475;SDS011;6810;63.824;20.288;2023-05-10T17:19:46;5.07;;;3.40;;
13475;SDS011;6810;63.824;20.288;2023-05-10T17:22:33;5.90;;;4.50;;
13475;SDS011;6810;63.824;20.288;2023-05-10T17:25:20;5.77;;;3.40;;
13475;SDS011;6810;63.824;20.288;2023-05-10T17:28:07;3.67;;;3.23;;
13475;SDS011;6810;63.824;20.288;2023-05-10T17:30:55;4.37;;;3.60;;
13475;SDS011;6810;63.824;20.288;2023-05-10T17:33:42;3.70;;;3.37;;
13475;SDS011;6810;63.824;20.288;2023-05-10T17:36:31;4.40;;;3.30;;
13475;SDS011;6810;63.824;20.288;2023-05-10T17:39:18;6.83;;;3.50;;
13475;SDS011;6810;63.824;20.288;2023-05-10T17:42:05;6.70;;;3.43;;
13475;SDS011;6810;63.824;20.288;2023-05-10T17:44:52;5.80;;;3.20;;
13475;SDS011;6810;63.824;20.288;2023-05-10T17:47:40;5.47;;;3.50;;
13475;SDS011;6810;63.824;20.288;2023-05-10T17:50:27;4.07;;;3.40;;
13475;SDS011;6810;63.824;20.288;2023-05-10T17:53:14;5.67;;;3.03;;
13475;SDS011;6810;63.824;20.288;2023-05-10T17:56:01;5.23;;;3.70;;
13475;SDS011;6810;63.824;20.288;2023-05-10T17:58:48;5.37;;;3.73;;
13475;SDS011;6810;63.824;20.288;2023-05-10T18:01:35;5.50;;;3.37;;
13475;SDS011;6810;63.824;20.288;2023-05-10T18:04:22;3.87;;;3.17;;
13475;SDS011;6810;63.824;20.288;2023-05-10T18:07:09;4.23;;;3.03;;
13475;SDS011;6810;63.824;20.288;2023-05-10T18:09:57;7.47;;;4.00;;
13475;SDS011;6810;63.824;20.288;2023-05-10T18:12:44;9.17;;;4.07;;
13475;SDS011;6810;63.824;20.288;2023-05-10T18:15:34;4.77;;;3.23;;
13475;SDS011;6810;63.824;20.288;2023-05-10T18:18:21;5.70;;;3.40;;
13475;SDS011;6810;63.824;20.288;2023-05-10T18:21:08;5.63;;;3.30;;
13475;SDS011;6810;63.824;20.288;2023-05-10T18:23:55;6.27;;;3.30;;
13475;SDS011;6810;63.824;20.288;2023-05-10T18:27:02;4.57;;;3.37;;
13475;SDS011;6810;63.824;20.288;2023-05-10T18:29:49;5.57;;;3.50;;
13475;SDS011;6810;63.824;20.288;2023-05-10T18:32:37;4.40;;;3.60;;
13475;SDS011;6810;63.824;20.288;2023-05-10T18:35:24;5.47;;;3.53;;
13475;SDS011;6810;63.824;20.288;2023-05-10T18:38:12;4.60;;;3.40;;
13475;SDS011;6810;63.824;20.288;2023-05-10T18:40:59;5.73;;;3.40;;
13475;SDS011;6810;63.824;20.288;2023-05-10T18:43:46;7.40;;;3.97;;
13475;SDS011;6810;63.824;20.288;2023-05-10T18:46:33;4.10;;;3.70;;
13475;SDS011;6810;63.824;20.288;2023-05-10T18:49:20;5.07;;;3.20;;
13475;SDS011;6810;63.824;20.288;2023-05-10T18:52:07;6.80;;;4.37;;
13475;SDS011;6810;63.824;20.288;2023-05-10T18:54:54;5.07;;;3.10;;
13475;SDS011;6810;63.824;20.288;2023-05-10T18:57:42;4.13;;;3.40;;
13475;SDS011;6810;63.824;20.288;2023-05-10T19:00:29;5.57;;;3.60;;
13475;SDS011;6810;63.824;20.288;2023-05-10T19:03:16;5.63;;;3.53;;
13475;SDS011;6810;63.824;20.288;2023-05-10T19:06:04;6.53;;;3.30;;
13475;SDS011;6810;63.824;20.288;2023-05-10T19:08:51;7.53;;;3.90;;
13475;SDS011;6810;63.824;20.288;2023-05-10T19:11:39;5.57;;;3.57;;
13475;SDS011;6810;63.824;20.288;2023-05-10T19:14:27;6.73;;;3.90;;
13475;SDS011;6810;63.824;20.288;2023-05-10T19:17:14;4.90;;;3.70;;
13475;SDS011;6810;63.824;20.288;2023-05-10T19:20:03;6.37;;;3.50;;
13475;SDS011;6810;63.824;20.288;2023-05-10T19:22:54;5.20;;;3.77;;
13475;SDS011;6810;63.824;20.288;2023-05-10T19:25:42;6.27;;;3.70;;
13475;SDS011;6810;63.824;20.288;2023-05-10T19:28:29;5.03;;;3.53;;
13475;SDS011;6810;63.824;20.288;2023-05-10T19:31:17;6.50;;;4.20;;
13475;SDS011;6810;63.824;20.288;2023-05-10T19:34:04;5.57;;;4.23;;
13475;SDS011;6810;63.824;20.288;2023-05-10T19:36:52;6.80;;;3.80;;
13475;SDS011;6810;63.824;20.288;2023-05-10T19:39:40;6.03;;;3.87;;
13475;SDS011;6810;63.824;20.288;2023-05-10T19:42:27;8.03;;;3.80;;
13475;SDS011;6810;63.824;20.288;2023-05-10T19:45:14;6.07;;;3.50;;
13475;SDS011;6810;63.824;20.288;2023-05-10T19:48:01;5.93;;;3.70;;
13475;SDS011;6810;63.824;20.288;2023-05-10T19:50:49;7.30;;;3.73;;
13475;SDS011;6810;63.824;20.288;2023-05-10T19:53:38;7.20;;;4.00;;
13475;SDS011;6810;63.824;20.288;2023-05-10T19:56:25;5.03;;;4.10;;
13475;SDS011;6810;63.824;20.288;2023-05-10T19:59:12;4.43;;;3.80;;
13475;SDS011;6810;63.824;20.288;2023-05-10T20:01:59;6.60;;;3.93;;
13475;SDS011;6810;63.824;20.288;2023-05-10T20:04:46;7.27;;;3.70;;
13475;SDS011;6810;63.824;20.288;2023-05-10T20:07:33;4.90;;;4.00;;
13475;SDS011;6810;63.824;20.288;2023-05-10T20:10:21;7.50;;;3.73;;
13475;SDS011;6810;63.824;20.288;2023-05-10T20:13:09;6.83;;;4.57;;
13475;SDS011;6810;63.824;20.288;2023-05-10T20:15:56;7.37;;;4.00;;
13475;SDS011;6810;63.824;20.288;2023-05-10T20:18:44;5.70;;;4.10;;
13475;SDS011;6810;63.824;20.288;2023-05-10T20:21:31;8.53;;;3.80;;
13475;SDS011;6810;63.824;20.288;2023-05-10T20:24:19;5.83;;;3.93;;
13475;SDS011;6810;63.824;20.288;2023-05-10T20:27:06;4.37;;;3.97;;
13475;SDS011;6810;63.824;20.288;2023-05-10T20:29:53;6.40;;;3.80;;
13475;SDS011;6810;63.824;20.288;2023-05-10T20:32:40;6.70;;;4.17;;
13475;SDS011;6810;63.824;20.288;2023-05-10T20:35:28;9.63;;;4.27;;
13475;SDS011;6810;63.824;20.288;2023-05-10T20:38:15;10.27;;;4.57;;
13475;SDS011;6810;63.824;20.288;2023-05-10T20:41:02;7.73;;;4.97;;
13475;SDS011;6810;63.824;20.288;2023-05-10T20:43:49;6.07;;;4.00;;
13475;SDS011;6810;63.824;20.288;2023-05-10T20:46:36;8.70;;;4.23;;
13475;SDS011;6810;63.824;20.288;2023-05-10T20:49:22;5.93;;;3.73;;
13475;SDS011;6810;63.824;20.288;2023-05-10T20:52:09;6.63;;;3.83;;
13475;SDS011;6810;63.824;20.288;2023-05-10T20:54:57;6.23;;;4.20;;
13475;SDS011;6810;63.824;20.288;2023-05-10T20:57:44;5.53;;;4.37;;
13475;SDS011;6810;63.824;20.288;2023-05-10T21:00:31;6.63;;;4.00;;
13475;SDS011;6810;63.824;20.288;2023-05-10T21:03:18;6.80;;;3.93;;
13475;SDS011;6810;63.824;20.288;2023-05-10T21:06:05;9.83;;;4.50;;
13475;SDS011;6810;63.824;20.288;2023-05-10T21:08:52;9.50;;;4.53;;
13475;SDS011;6810;63.824;20.288;2023-05-10T21:11:39;6.50;;;4.10;;
13475;SDS011;6810;63.824;20.288;2023-05-10T21:14:26;9.10;;;4.30;;
13475;SDS011;6810;63.824;20.288;2023-05-10T21:17:13;9.03;;;4.60;;
13475;SDS011;6810;63.824;20.288;2023-05-10T21:20:00;8.20;;;4.40;;
13475;SDS011;6810;63.824;20.288;2023-05-10T21:22:49;5.80;;;4.53;;
13475;SDS011;6810;63.824;20.288;2023-05-10T21:25:36;6.73;;;4.47;;
13475;SDS011;6810;63.824;20.288;2023-05-10T21:28:22;9.40;;;4.30;;
13475;SDS011;6810;63.824;20.288;2023-05-10T21:31:10;5.60;;;4.57;;
13475;SDS011;6810;63.824;20.288;2023-05-10T21:33:57;7.23;;;4.43;;
13475;SDS011;6810;63.824;20.288;2023-05-10T21:36:44;7.23;;;4.07;;
13475;SDS011;6810;63.824;20.288;2023-05-10T21:39:31;12.50;;;5.10;;
13475;SDS011;6810;63.824;20.288;2023-05-10T21:42:18;12.20;;;4.73;;
13475;SDS011;6810;63.824;20.288;2023-05-10T21:45:05;7.87;;;4.63;;
13475;SDS011;6810;63.824;20.288;2023-05-10T21:47:53;10.47;;;4.90;;
13475;SDS011;6810;63.824;20.288;2023-05-10T21:50:40;8.20;;;4.43;;
13475;SDS011;6810;63.824;20.288;2023-05-10T21:53:27;6.23;;;4.20;;
13475;SDS011;6810;63.824;20.288;2023-05-10T21:56:14;8.17;;;4.73;;
13475;SDS011;6810;63.824;20.288;2023-05-10T21:59:01;8.03;;;4.73;;
13475;SDS011;6810;63.824;20.288;2023-05-10T22:01:48;9.87;;;6.13;;
13475;SDS011;6810;63.824;20.288;2023-05-10T22:04:35;7.67;;;4.30;;
13475;SDS011;6810;63.824;20.288;2023-05-10T22:07:22;8.23;;;4.77;;
13475;SDS011;6810;63.824;20.288;2023-05-10T22:10:10;6.80;;;4.63;;
13475;SDS011;6810;63.824;20.288;2023-05-10T22:12:57;8.50;;;4.80;;
13475;SDS011;6810;63.824;20.288;2023-05-10T22:15:41;6.20;;;4.07;;
13475;SDS011;6810;63.824;20.288;2023-05-10T22:18:28;6.37;;;4.20;;
13475;SDS011;6810;63.824;20.288;2023-05-10T22:21:16;6.43;;;4.33;;
13475;SDS011;6810;63.824;20.288;2023-05-10T22:24:03;8.77;;;4.50;;
13475;SDS011;6810;63.824;20.288;2023-05-10T22:26:52;8.67;;;4.43;;
13475;SDS011;6810;63.824;20.288;2023-05-10T22:29:40;7.83;;;4.33;;
13475;SDS011;6810;63.824;20.288;2023-05-10T22:32:07;9.40;;;4.67;;
13475;SDS011;6810;63.824;20.288;2023-05-10T22:34:54;8.93;;;4.30;;
13475;SDS011;6810;63.824;20.288;2023-05-10T22:37:41;7.33;;;4.27;;
13475;SDS011;6810;63.824;20.288;2023-05-10T22:40:28;9.77;;;4.53;;
13475;SDS011;6810;63.824;20.288;2023-05-10T22:43:15;7.70;;;4.40;;
13475;SDS011;6810;63.824;20.288;2023-05-10T22:46:03;7.83;;;4.47;;
13475;SDS011;6810;63.824;20.288;2023-05-10T22:48:50;8.83;;;4.50;;
13475;SDS011;6810;63.824;20.288;2023-05-10T22:51:37;6.80;;;4.47;;
13475;SDS011;6810;63.824;20.288;2023-05-10T22:54:24;6.70;;;4.30;;
13475;SDS011;6810;63.824;20.288;2023-05-10T22:57:11;6.93;;;4.10;;
13475;SDS011;6810;63.824;20.288;2023-05-10T22:59:59;6.93;;;4.33;;
13475;SDS011;6810;63.824;20.288;2023-05-10T23:02:46;8.63;;;4.67;;
13475;SDS011;6810;63.824;20.288;2023-05-10T23:05:33;7.50;;;4.37;;
13475;SDS011;6810;63.824;20.288;2023-05-10T23:08:20;7.30;;;4.27;;
13475;SDS011;6810;63.824;20.288;2023-05-10T23:11:08;7.50;;;3.97;;
13475;SDS011;6810;63.824;20.288;2023-05-10T23:13:55;8.83;;;4.60;;
13475;SDS011;6810;63.824;20.288;2023-05-10T23:16:42;5.20;;;4.07;;
13475;SDS011;6810;63.824;20.288;2023-05-10T23:19:29;7.63;;;4.33;;
13475;SDS011;6810;63.824;20.288;2023-05-10T23:22:16;7.90;;;4.00;;
13475;SDS011;6810;63.824;20.288;2023-05-10T23:25:03;6.20;;;4.27;;
13475;SDS011;6810;63.824;20.288;2023-05-10T23:27:51;8.13;;;4.70;;
13475;SDS011;6810;63.824;20.288;2023-05-10T23:30:38;6.73;;;4.40;;
13475;SDS011;6810;63.824;20.288;2023-05-10T23:33:25;6.23;;;4.30;;
13475;SDS011;6810;63.824;20.288;2023-05-10T23:36:12;5.50;;;4.37;;
13475;SDS011;6810;63.824;20.288;2023-05-10T23:38:59;7.43;;;4.40;;
13475;SDS011;6810;63.824;20.288;2023-05-10T23:41:46;12.43;;;4.40;;
13475;SDS011;6810;63.824;20.288;2023-05-10T23:44:34;7.03;;;4.73;;
13475;SDS011;6810;63.824;20.288;2023-05-10T23:47:21;9.37;;;4.30;;
13475;SDS011;6810;63.824;20.288;2023-05-10T23:50:09;5.63;;;4.43;;
13475;SDS011;6810;63.824;20.288;2023-05-10T23:52:56;6.30;;;3.80;;
13475;SDS011;6810;63.824;20.288;2023-05-10T23:55:43;5.50;;;4.00;;
13475;SDS011;6810;63.824;20.288;2023-05-10T23:58:31;9.30;;;4.00;;
